sensor_id;sensor_type;location;lat;lon;timestamp;pressure;altitude;pressure_sealevel;temperature;humidity
33554;BME280;19885;42.208;24.952;2022-07-18T00:02:03;100379.84;;;24.61;36.83
33554;BME280;19885;42.208;24.952;2022-07-18T00:04:29;100368.81;;;24.28;38.36
33554;BME280;19885;42.208;24.952;2022-07-18T00:06:58;100370.53;;;24.29;35.67
33554;BME280;19885;42.208;24.952;2022-07-18T00:09:27;100383.97;;;24.26;40.37
33554;BME280;19885;42.208;24.952;2022-07-18T00:11:53;100373.94;;;24.11;37.44
33554;BME280;19885;42.208;24.952;2022-07-18T00:14:20;100379.88;;;24.18;38.54
33554;BME280;19885;42.208;24.952;2022-07-18T00:16:47;100379.34;;;24.09;37.70
33554;BME280;19885;42.208;24.952;2022-07-18T00:19:13;100376.66;;;24.09;37.15
33554;BME280;19885;42.208;24.952;2022-07-18T00:21:39;100385.34;;;24.15;37.81
33554;BME280;19885;42.208;24.952;2022-07-18T00:24:05;100377.34;;;22.73;38.72
33554;BME280;19885;42.208;24.952;2022-07-18T00:26:33;100387.97;;;22.99;38.50
33554;BME280;19885;42.208;24.952;2022-07-18T00:28:59;100377.41;;;23.45;37.18
33554;BME280;19885;42.208;24.952;2022-07-18T00:31:27;100376.16;;;23.54;36.94
33554;BME280;19885;42.208;24.952;2022-07-18T00:33:53;100387.50;;;22.34;38.35
33554;BME280;19885;42.208;24.952;2022-07-18T00:36:21;100388.63;;;21.70;40.41
33554;BME280;19885;42.208;24.952;2022-07-18T00:38:50;100376.78;;;22.37;39.58
33554;BME280;19885;42.208;24.952;2022-07-18T00:41:16;100382.91;;;22.39;38.47
33554;BME280;19885;42.208;24.952;2022-07-18T00:43:42;100375.19;;;22.05;38.75
33554;BME280;19885;42.208;24.952;2022-07-18T00:46:08;100381.06;;;21.87;39.40
33554;BME280;19885;42.208;24.952;2022-07-18T00:48:37;100357.56;;;22.55;38.08
33554;BME280;19885;42.208;24.952;2022-07-18T00:51:03;100355.63;;;22.08;38.51
33554;BME280;19885;42.208;24.952;2022-07-18T00:53:29;100374.69;;;22.20;38.74
33554;BME280;19885;42.208;24.952;2022-07-18T00:55:55;100378.44;;;22.13;39.04
33554;BME280;19885;42.208;24.952;2022-07-18T00:58:21;100387.50;;;22.34;39.18
33554;BME280;19885;42.208;24.952;2022-07-18T01:00:47;100379.25;;;22.15;40.17
33554;BME280;19885;42.208;24.952;2022-07-18T01:03:31;100391.94;;;22.33;40.22
33554;BME280;19885;42.208;24.952;2022-07-18T01:05:57;100383.81;;;22.65;39.30
33554;BME280;19885;42.208;24.952;2022-07-18T01:08:22;100385.41;;;22.96;38.46
33554;BME280;19885;42.208;24.952;2022-07-18T01:10:48;100386.59;;;22.87;39.58
33554;BME280;19885;42.208;24.952;2022-07-18T01:13:15;100388.31;;;23.13;40.07
33554;BME280;19885;42.208;24.952;2022-07-18T01:15:41;100376.59;;;22.69;40.46
33554;BME280;19885;42.208;24.952;2022-07-18T01:18:06;100393.69;;;23.11;39.55
33554;BME280;19885;42.208;24.952;2022-07-18T01:20:32;100401.91;;;23.05;39.96
33554;BME280;19885;42.208;24.952;2022-07-18T01:23:00;100397.91;;;22.67;40.76
33554;BME280;19885;42.208;24.952;2022-07-18T01:25:26;100394.50;;;22.89;40.76
33554;BME280;19885;42.208;24.952;2022-07-18T01:27:52;100372.53;;;22.84;39.51
33554;BME280;19885;42.208;24.952;2022-07-18T01:30:18;100367.94;;;22.62;40.98
33554;BME280;19885;42.208;24.952;2022-07-18T01:32:44;100393.09;;;21.69;42.45
33554;BME280;19885;42.208;24.952;2022-07-18T01:35:10;100394.75;;;22.29;41.20
33554;BME280;19885;42.208;24.952;2022-07-18T01:37:36;100397.38;;;22.56;40.74
33554;BME280;19885;42.208;24.952;2022-07-18T01:40:07;100351.09;;;22.37;39.52
33554;BME280;19885;42.208;24.952;2022-07-18T01:42:33;100373.84;;;22.44;41.25
33554;BME280;19885;42.208;24.952;2022-07-18T01:44:59;100387.00;;;21.95;41.84
33554;BME280;19885;42.208;24.952;2022-07-18T01:47:24;100393.31;;;21.31;42.75
33554;BME280;19885;42.208;24.952;2022-07-18T01:49:50;100368.13;;;21.46;42.54
33554;BME280;19885;42.208;24.952;2022-07-18T01:52:15;100387.06;;;21.63;42.28
33554;BME280;19885;42.208;24.952;2022-07-18T01:54:42;100372.75;;;21.39;42.63
33554;BME280;19885;42.208;24.952;2022-07-18T01:57:08;100387.97;;;21.33;41.55
33554;BME280;19885;42.208;24.952;2022-07-18T01:59:34;100397.28;;;21.16;42.32
33554;BME280;19885;42.208;24.952;2022-07-18T02:02:03;100398.13;;;20.85;41.83
33554;BME280;19885;42.208;24.952;2022-07-18T02:04:28;100410.03;;;20.69;42.40
33554;BME280;19885;42.208;24.952;2022-07-18T02:07:13;100396.75;;;20.35;42.80
33554;BME280;19885;42.208;24.952;2022-07-18T02:09:39;100397.56;;;20.00;42.62
33554;BME280;19885;42.208;24.952;2022-07-18T02:12:04;100382.56;;;19.99;42.89
33554;BME280;19885;42.208;24.952;2022-07-18T02:14:30;100403.63;;;20.04;41.75
33554;BME280;19885;42.208;24.952;2022-07-18T02:16:56;100393.75;;;20.12;41.70
33554;BME280;19885;42.208;24.952;2022-07-18T02:19:21;100393.41;;;20.28;40.72
33554;BME280;19885;42.208;24.952;2022-07-18T02:21:47;100405.91;;;20.57;40.72
33554;BME280;19885;42.208;24.952;2022-07-18T02:24:15;100413.38;;;20.40;41.68
33554;BME280;19885;42.208;24.952;2022-07-18T02:26:41;100404.84;;;20.29;41.02
33554;BME280;19885;42.208;24.952;2022-07-18T02:29:06;100414.31;;;20.01;41.88
33554;BME280;19885;42.208;24.952;2022-07-18T02:31:32;100389.03;;;20.26;41.30
33554;BME280;19885;42.208;24.952;2022-07-18T02:33:58;100417.56;;;20.12;41.11
33554;BME280;19885;42.208;24.952;2022-07-18T02:36:23;100413.78;;;19.85;42.23
33554;BME280;19885;42.208;24.952;2022-07-18T02:38:49;100408.88;;;20.07;41.40
33554;BME280;19885;42.208;24.952;2022-07-18T02:41:14;100412.38;;;19.69;41.94
33554;BME280;19885;42.208;24.952;2022-07-18T02:43:40;100412.69;;;19.54;43.41
33554;BME280;19885;42.208;24.952;2022-07-18T02:46:05;100375.38;;;19.26;43.69
33554;BME280;19885;42.208;24.952;2022-07-18T02:48:31;100407.03;;;19.28;43.58
33554;BME280;19885;42.208;24.952;2022-07-18T02:50:56;100439.50;;;19.37;44.73
33554;BME280;19885;42.208;24.952;2022-07-18T02:53:22;100403.00;;;19.10;44.52
33554;BME280;19885;42.208;24.952;2022-07-18T02:55:49;100434.50;;;19.20;44.16
33554;BME280;19885;42.208;24.952;2022-07-18T02:58:16;100443.47;;;19.12;45.38
33554;BME280;19885;42.208;24.952;2022-07-18T03:00:42;100435.41;;;19.18;45.03
33554;BME280;19885;42.208;24.952;2022-07-18T03:03:07;100439.72;;;19.23;45.00
33554;BME280;19885;42.208;24.952;2022-07-18T03:05:33;100431.31;;;19.03;44.87
33554;BME280;19885;42.208;24.952;2022-07-18T03:07:58;100446.81;;;19.21;44.92
33554;BME280;19885;42.208;24.952;2022-07-18T03:10:24;100439.81;;;18.72;46.07
33554;BME280;19885;42.208;24.952;2022-07-18T03:12:50;100443.00;;;18.89;45.70
33554;BME280;19885;42.208;24.952;2022-07-18T03:15:15;100445.28;;;19.08;45.18
33554;BME280;19885;42.208;24.952;2022-07-18T03:17:41;100440.06;;;19.51;45.29
33554;BME280;19885;42.208;24.952;2022-07-18T03:20:07;100441.69;;;19.12;45.53
33554;BME280;19885;42.208;24.952;2022-07-18T03:22:34;100457.56;;;19.12;45.02
33554;BME280;19885;42.208;24.952;2022-07-18T03:25:00;100459.31;;;19.12;45.89
33554;BME280;19885;42.208;24.952;2022-07-18T03:27:26;100453.19;;;19.56;45.25
33554;BME280;19885;42.208;24.952;2022-07-18T03:29:51;100467.84;;;19.73;44.85
33554;BME280;19885;42.208;24.952;2022-07-18T03:32:17;100465.13;;;19.31;46.07
33554;BME280;19885;42.208;24.952;2022-07-18T03:34:42;100464.25;;;19.74;46.26
33554;BME280;19885;42.208;24.952;2022-07-18T03:37:08;100474.06;;;19.71;46.10
33554;BME280;19885;42.208;24.952;2022-07-18T03:39:34;100490.34;;;19.01;46.97
33554;BME280;19885;42.208;24.952;2022-07-18T03:41:59;100487.09;;;19.36;46.34
33554;BME280;19885;42.208;24.952;2022-07-18T03:44:25;100489.59;;;19.87;44.93
33554;BME280;19885;42.208;24.952;2022-07-18T03:46:51;100499.09;;;19.94;45.03
33554;BME280;19885;42.208;24.952;2022-07-18T03:49:19;100499.34;;;19.84;44.73
33554;BME280;19885;42.208;24.952;2022-07-18T03:51:45;100511.00;;;19.75;46.10
33554;BME280;19885;42.208;24.952;2022-07-18T03:54:11;100498.31;;;19.48;46.79
33554;BME280;19885;42.208;24.952;2022-07-18T03:56:37;100512.28;;;19.55;45.16
33554;BME280;19885;42.208;24.952;2022-07-18T03:59:03;100498.13;;;19.08;46.78
33554;BME280;19885;42.208;24.952;2022-07-18T04:01:29;100495.59;;;19.02;46.22
33554;BME280;19885;42.208;24.952;2022-07-18T04:03:55;100515.78;;;19.06;47.24
33554;BME280;19885;42.208;24.952;2022-07-18T04:06:20;100519.88;;;18.74;46.57
33554;BME280;19885;42.208;24.952;2022-07-18T04:08:46;100520.66;;;18.79;46.69
33554;BME280;19885;42.208;24.952;2022-07-18T04:11:12;100529.78;;;18.60;47.47
33554;BME280;19885;42.208;24.952;2022-07-18T04:13:37;100527.69;;;18.80;47.58
33554;BME280;19885;42.208;24.952;2022-07-18T04:16:03;100530.28;;;19.33;46.90
33554;BME280;19885;42.208;24.952;2022-07-18T04:18:29;100513.69;;;19.72;46.17
33554;BME280;19885;42.208;24.952;2022-07-18T04:20:54;100518.31;;;20.06;45.19
33554;BME280;19885;42.208;24.952;2022-07-18T04:23:20;100513.41;;;19.87;46.62
33554;BME280;19885;42.208;24.952;2022-07-18T04:25:47;100522.19;;;19.44;47.79
33554;BME280;19885;42.208;24.952;2022-07-18T04:28:13;100525.47;;;19.06;49.38
33554;BME280;19885;42.208;24.952;2022-07-18T04:30:41;100519.38;;;19.02;50.10
33554;BME280;19885;42.208;24.952;2022-07-18T04:33:08;100520.03;;;19.64;48.49
33554;BME280;19885;42.208;24.952;2022-07-18T04:35:34;100524.44;;;19.65;48.22
33554;BME280;19885;42.208;24.952;2022-07-18T04:38:02;100506.41;;;19.39;48.99
33554;BME280;19885;42.208;24.952;2022-07-18T04:40:27;100524.09;;;19.81;48.64
33554;BME280;19885;42.208;24.952;2022-07-18T04:42:53;100521.25;;;19.92;48.93
33554;BME280;19885;42.208;24.952;2022-07-18T04:45:19;100516.59;;;20.02;48.40
33554;BME280;19885;42.208;24.952;2022-07-18T04:47:52;100518.34;;;20.03;48.20
33554;BME280;19885;42.208;24.952;2022-07-18T04:50:18;100504.53;;;19.88;48.85
33554;BME280;19885;42.208;24.952;2022-07-18T04:52:45;100513.00;;;20.06;48.43
33554;BME280;19885;42.208;24.952;2022-07-18T04:55:13;100514.47;;;20.19;47.80
33554;BME280;19885;42.208;24.952;2022-07-18T04:57:39;100508.06;;;20.30;46.93
33554;BME280;19885;42.208;24.952;2022-07-18T05:00:07;100513.00;;;20.45;45.77
33554;BME280;19885;42.208;24.952;2022-07-18T05:02:33;100518.38;;;20.42;46.30
33554;BME280;19885;42.208;24.952;2022-07-18T05:04:59;100515.56;;;20.50;45.96
33554;BME280;19885;42.208;24.952;2022-07-18T05:07:24;100522.94;;;20.37;46.80
33554;BME280;19885;42.208;24.952;2022-07-18T05:09:50;100525.59;;;20.36;46.57
33554;BME280;19885;42.208;24.952;2022-07-18T05:12:15;100528.16;;;20.39;45.80
33554;BME280;19885;42.208;24.952;2022-07-18T05:14:41;100542.81;;;20.53;44.11
33554;BME280;19885;42.208;24.952;2022-07-18T05:17:07;100535.31;;;20.72;44.76
33554;BME280;19885;42.208;24.952;2022-07-18T05:19:32;100537.75;;;20.81;43.88
33554;BME280;19885;42.208;24.952;2022-07-18T05:21:58;100542.94;;;20.87;45.52
33554;BME280;19885;42.208;24.952;2022-07-18T05:24:23;100540.84;;;21.00;45.61
33554;BME280;19885;42.208;24.952;2022-07-18T05:26:49;100538.88;;;21.09;46.21
33554;BME280;19885;42.208;24.952;2022-07-18T05:29:15;100522.13;;;21.07;45.11
33554;BME280;19885;42.208;24.952;2022-07-18T05:31:41;100549.47;;;21.09;46.28
33554;BME280;19885;42.208;24.952;2022-07-18T05:34:07;100531.31;;;21.28;45.51
33554;BME280;19885;42.208;24.952;2022-07-18T05:36:33;100533.31;;;21.52;44.30
33554;BME280;19885;42.208;24.952;2022-07-18T05:38:58;100544.69;;;21.23;44.62
33554;BME280;19885;42.208;24.952;2022-07-18T05:41:24;100545.41;;;21.28;45.37
33554;BME280;19885;42.208;24.952;2022-07-18T05:43:50;100549.41;;;21.12;44.79
33554;BME280;19885;42.208;24.952;2022-07-18T05:46:15;100545.47;;;21.27;45.31
33554;BME280;19885;42.208;24.952;2022-07-18T05:48:41;100540.59;;;21.44;44.24
33554;BME280;19885;42.208;24.952;2022-07-18T05:51:09;100538.97;;;21.39;43.95
33554;BME280;19885;42.208;24.952;2022-07-18T05:53:35;100549.53;;;21.74;44.72
33554;BME280;19885;42.208;24.952;2022-07-18T05:56:01;100547.34;;;21.89;43.96
33554;BME280;19885;42.208;24.952;2022-07-18T05:58:27;100535.81;;;21.57;42.26
33554;BME280;19885;42.208;24.952;2022-07-18T06:00:52;100548.84;;;21.98;43.11
33554;BME280;19885;42.208;24.952;2022-07-18T06:03:19;100552.88;;;21.80;42.85
33554;BME280;19885;42.208;24.952;2022-07-18T06:05:47;100554.16;;;21.98;44.01
33554;BME280;19885;42.208;24.952;2022-07-18T06:08:13;100551.97;;;22.12;43.18
33554;BME280;19885;42.208;24.952;2022-07-18T06:10:39;100541.91;;;21.94;43.27
33554;BME280;19885;42.208;24.952;2022-07-18T06:13:08;100517.75;;;21.71;43.00
33554;BME280;19885;42.208;24.952;2022-07-18T06:15:34;100549.59;;;22.03;42.28
33554;BME280;19885;42.208;24.952;2022-07-18T06:17:59;100525.59;;;22.06;42.19
33554;BME280;19885;42.208;24.952;2022-07-18T06:20:25;100535.56;;;22.27;42.33
33554;BME280;19885;42.208;24.952;2022-07-18T06:22:51;100540.53;;;22.39;44.05
33554;BME280;19885;42.208;24.952;2022-07-18T06:25:16;100537.63;;;22.47;43.49
33554;BME280;19885;42.208;24.952;2022-07-18T06:27:42;100537.94;;;22.65;41.75
33554;BME280;19885;42.208;24.952;2022-07-18T06:30:08;100531.88;;;22.62;44.00
33554;BME280;19885;42.208;24.952;2022-07-18T06:32:38;100522.47;;;22.50;41.13
33554;BME280;19885;42.208;24.952;2022-07-18T06:35:04;100522.88;;;22.66;41.72
33554;BME280;19885;42.208;24.952;2022-07-18T06:37:30;100516.31;;;22.78;40.68
33554;BME280;19885;42.208;24.952;2022-07-18T06:39:55;100537.22;;;23.14;40.27
33554;BME280;19885;42.208;24.952;2022-07-18T06:42:21;100540.00;;;23.62;40.83
33554;BME280;19885;42.208;24.952;2022-07-18T06:44:46;100541.94;;;23.31;38.35
33554;BME280;19885;42.208;24.952;2022-07-18T06:47:12;100514.59;;;23.01;39.61
33554;BME280;19885;42.208;24.952;2022-07-18T06:49:40;100531.28;;;23.82;40.25
33554;BME280;19885;42.208;24.952;2022-07-18T06:52:05;100525.78;;;24.11;39.57
33554;BME280;19885;42.208;24.952;2022-07-18T06:54:31;100522.69;;;24.45;38.04
33554;BME280;19885;42.208;24.952;2022-07-18T06:56:58;100524.78;;;24.58;34.84
33554;BME280;19885;42.208;24.952;2022-07-18T06:59:24;100522.34;;;24.97;35.54
33554;BME280;19885;42.208;24.952;2022-07-18T07:01:49;100533.03;;;24.07;36.54
33554;BME280;19885;42.208;24.952;2022-07-18T07:04:15;100529.41;;;24.08;37.20
33554;BME280;19885;42.208;24.952;2022-07-18T07:06:44;100535.09;;;24.46;35.62
33554;BME280;19885;42.208;24.952;2022-07-18T07:09:10;100506.16;;;24.14;35.27
33554;BME280;19885;42.208;24.952;2022-07-18T07:11:38;100530.09;;;24.60;34.85
33554;BME280;19885;42.208;24.952;2022-07-18T07:14:04;100538.66;;;25.31;32.58
33554;BME280;19885;42.208;24.952;2022-07-18T07:16:32;100530.28;;;24.77;33.20
33554;BME280;19885;42.208;24.952;2022-07-18T07:18:58;100529.63;;;24.70;33.26
33554;BME280;19885;42.208;24.952;2022-07-18T07:21:23;100521.91;;;24.64;32.34
33554;BME280;19885;42.208;24.952;2022-07-18T07:23:52;100533.19;;;24.71;34.06
33554;BME280;19885;42.208;24.952;2022-07-18T07:26:18;100520.22;;;24.84;32.48
33554;BME280;19885;42.208;24.952;2022-07-18T07:28:43;100532.94;;;25.40;32.64
33554;BME280;19885;42.208;24.952;2022-07-18T07:31:09;100527.97;;;25.31;32.86
33554;BME280;19885;42.208;24.952;2022-07-18T07:33:36;100517.72;;;25.83;33.45
33554;BME280;19885;42.208;24.952;2022-07-18T07:36:02;100507.84;;;26.03;32.94
33554;BME280;19885;42.208;24.952;2022-07-18T07:38:29;100516.69;;;26.24;34.64
33554;BME280;19885;42.208;24.952;2022-07-18T07:40:55;100520.31;;;26.42;34.06
33554;BME280;19885;42.208;24.952;2022-07-18T07:43:21;100517.16;;;25.95;32.45
33554;BME280;19885;42.208;24.952;2022-07-18T07:45:48;100530.13;;;26.23;36.98
33554;BME280;19885;42.208;24.952;2022-07-18T07:48:18;100517.69;;;26.40;34.25
33554;BME280;19885;42.208;24.952;2022-07-18T07:50:44;100524.63;;;26.44;34.83
33554;BME280;19885;42.208;24.952;2022-07-18T07:53:10;100521.97;;;26.44;34.29
33554;BME280;19885;42.208;24.952;2022-07-18T07:55:35;100501.88;;;26.36;37.25
33554;BME280;19885;42.208;24.952;2022-07-18T07:58:01;100527.72;;;26.72;37.61
33554;BME280;19885;42.208;24.952;2022-07-18T08:00:30;100525.19;;;26.69;35.84
33554;BME280;19885;42.208;24.952;2022-07-18T08:03:04;100511.56;;;26.57;37.22
33554;BME280;19885;42.208;24.952;2022-07-18T08:05:33;100529.53;;;26.91;37.84
33554;BME280;19885;42.208;24.952;2022-07-18T08:08:00;100535.31;;;26.81;35.80
33554;BME280;19885;42.208;24.952;2022-07-18T08:10:26;100529.53;;;26.91;34.61
33554;BME280;19885;42.208;24.952;2022-07-18T08:12:52;100528.88;;;26.85;35.04
33554;BME280;19885;42.208;24.952;2022-07-18T08:15:18;100531.88;;;26.97;35.29
33554;BME280;19885;42.208;24.952;2022-07-18T08:17:44;100517.75;;;27.12;36.47
33554;BME280;19885;42.208;24.952;2022-07-18T08:20:10;100533.03;;;27.10;36.45
33554;BME280;19885;42.208;24.952;2022-07-18T08:22:51;100524.53;;;27.19;34.56
33554;BME280;19885;42.208;24.952;2022-07-18T08:25:20;100535.06;;;27.22;35.10
33554;BME280;19885;42.208;24.952;2022-07-18T08:27:46;100527.53;;;27.30;33.81
33554;BME280;19885;42.208;24.952;2022-07-18T08:30:12;100524.41;;;27.39;34.65
33554;BME280;19885;42.208;24.952;2022-07-18T08:32:37;100516.75;;;27.48;35.60
33554;BME280;19885;42.208;24.952;2022-07-18T08:35:07;100522.47;;;27.58;34.91
33554;BME280;19885;42.208;24.952;2022-07-18T08:37:37;100522.59;;;27.39;35.10
33554;BME280;19885;42.208;24.952;2022-07-18T08:40:04;100528.78;;;27.40;35.31
33554;BME280;19885;42.208;24.952;2022-07-18T08:42:33;100528.72;;;27.58;34.47
33554;BME280;19885;42.208;24.952;2022-07-18T08:45:00;100516.28;;;27.58;35.25
33554;BME280;19885;42.208;24.952;2022-07-18T08:47:27;100526.50;;;27.32;32.91
33554;BME280;19885;42.208;24.952;2022-07-18T08:49:58;100519.66;;;27.10;35.38
33554;BME280;19885;42.208;24.952;2022-07-18T08:52:24;100488.38;;;27.10;35.73
33554;BME280;19885;42.208;24.952;2022-07-18T08:54:50;100524.06;;;27.28;34.60
33554;BME280;19885;42.208;24.952;2022-07-18T08:57:16;100519.91;;;27.39;33.00
33554;BME280;19885;42.208;24.952;2022-07-18T08:59:42;100533.03;;;27.27;33.40
33554;BME280;19885;42.208;24.952;2022-07-18T09:02:08;100515.25;;;27.26;34.43
33554;BME280;19885;42.208;24.952;2022-07-18T09:04:35;100517.28;;;27.21;33.62
33554;BME280;19885;42.208;24.952;2022-07-18T09:07:05;100525.72;;;27.47;34.42
33554;BME280;19885;42.208;24.952;2022-07-18T09:09:37;100513.75;;;27.37;36.45
33554;BME280;19885;42.208;24.952;2022-07-18T09:12:08;100512.47;;;27.27;34.12
33554;BME280;19885;42.208;24.952;2022-07-18T09:14:40;100526.22;;;27.38;34.96
33554;BME280;19885;42.208;24.952;2022-07-18T09:17:13;100467.81;;;27.11;34.62
33554;BME280;19885;42.208;24.952;2022-07-18T09:20:02;100525.94;;;27.77;35.19
33554;BME280;19885;42.208;24.952;2022-07-18T09:22:33;100445.44;;;27.29;34.71
33554;BME280;19885;42.208;24.952;2022-07-18T09:27:38;100520.41;;;28.13;33.08
33554;BME280;19885;42.208;24.952;2022-07-18T09:32:38;100515.25;;;28.25;34.47
33554;BME280;19885;42.208;24.952;2022-07-18T09:35:10;100516.56;;;28.18;33.30
33554;BME280;19885;42.208;24.952;2022-07-18T09:37:36;100525.47;;;28.50;36.11
33554;BME280;19885;42.208;24.952;2022-07-18T09:40:20;100531.66;;;28.68;34.89
33554;BME280;19885;42.208;24.952;2022-07-18T09:42:54;100534.31;;;28.37;34.36
33554;BME280;19885;42.208;24.952;2022-07-18T09:45:28;100523.38;;;28.40;35.18
33554;BME280;19885;42.208;24.952;2022-07-18T09:47:59;100530.75;;;28.52;35.23
33554;BME280;19885;42.208;24.952;2022-07-18T09:50:30;100499.44;;;28.21;35.70
33554;BME280;19885;42.208;24.952;2022-07-18T09:55:33;100512.59;;;28.57;34.33
33554;BME280;19885;42.208;24.952;2022-07-18T09:58:04;100507.91;;;28.76;35.92
33554;BME280;19885;42.208;24.952;2022-07-18T10:00:33;100494.06;;;28.68;35.23
33554;BME280;19885;42.208;24.952;2022-07-18T10:03:00;100441.59;;;28.47;34.74
33554;BME280;19885;42.208;24.952;2022-07-18T10:05:27;100505.66;;;28.84;35.19
33554;BME280;19885;42.208;24.952;2022-07-18T10:07:53;100495.84;;;28.83;36.95
33554;BME280;19885;42.208;24.952;2022-07-18T10:10:20;100487.59;;;29.02;36.22
33554;BME280;19885;42.208;24.952;2022-07-18T10:12:45;100488.03;;;29.10;32.65
33554;BME280;19885;42.208;24.952;2022-07-18T10:15:11;100465.44;;;28.98;36.08
33554;BME280;19885;42.208;24.952;2022-07-18T10:17:37;100479.69;;;29.14;34.02
33554;BME280;19885;42.208;24.952;2022-07-18T10:20:06;100452.84;;;29.14;34.53
33554;BME280;19885;42.208;24.952;2022-07-18T10:22:40;100472.75;;;29.26;34.86
33554;BME280;19885;42.208;24.952;2022-07-18T10:25:10;100475.56;;;29.38;35.67
33554;BME280;19885;42.208;24.952;2022-07-18T10:27:52;100469.72;;;29.74;35.62
33554;BME280;19885;42.208;24.952;2022-07-18T10:30:31;100457.06;;;29.76;35.23
33554;BME280;19885;42.208;24.952;2022-07-18T10:32:57;100460.03;;;29.43;34.71
33554;BME280;19885;42.208;24.952;2022-07-18T10:36:03;100464.69;;;29.40;35.66
33554;BME280;19885;42.208;24.952;2022-07-18T10:38:29;100445.72;;;29.57;35.73
33554;BME280;19885;42.208;24.952;2022-07-18T10:45:55;100447.91;;;29.36;35.43
33554;BME280;19885;42.208;24.952;2022-07-18T10:51:12;100457.44;;;29.70;37.49
33554;BME280;19885;42.208;24.952;2022-07-18T10:56:20;100452.16;;;29.54;35.11
33554;BME280;19885;42.208;24.952;2022-07-18T10:58:46;100440.16;;;29.74;36.47
33554;BME280;19885;42.208;24.952;2022-07-18T11:01:17;100440.84;;;29.63;37.11
33554;BME280;19885;42.208;24.952;2022-07-18T11:03:43;100427.22;;;29.52;32.85
33554;BME280;19885;42.208;24.952;2022-07-18T11:06:09;100433.94;;;29.88;35.59
33554;BME280;19885;42.208;24.952;2022-07-18T11:08:35;100424.94;;;30.29;34.03
33554;BME280;19885;42.208;24.952;2022-07-18T11:11:05;100428.56;;;30.69;35.03
33554;BME280;19885;42.208;24.952;2022-07-18T11:13:34;100415.03;;;30.30;34.29
33554;BME280;19885;42.208;24.952;2022-07-18T11:16:22;100423.41;;;30.79;34.22
33554;BME280;19885;42.208;24.952;2022-07-18T11:21:32;100402.84;;;30.39;33.54
33554;BME280;19885;42.208;24.952;2022-07-18T11:24:06;100418.25;;;30.49;33.87
33554;BME280;19885;42.208;24.952;2022-07-18T11:26:34;100409.91;;;30.40;32.30
33554;BME280;19885;42.208;24.952;2022-07-18T11:29:08;100410.69;;;30.68;34.62
33554;BME280;19885;42.208;24.952;2022-07-18T11:34:10;100413.16;;;31.11;33.95
33554;BME280;19885;42.208;24.952;2022-07-18T11:36:38;100405.31;;;31.08;34.35
33554;BME280;19885;42.208;24.952;2022-07-18T11:39:04;100406.09;;;31.35;32.88
33554;BME280;19885;42.208;24.952;2022-07-18T11:41:30;100399.72;;;31.23;32.96
33554;BME280;19885;42.208;24.952;2022-07-18T11:43:56;100404.25;;;31.23;34.41
33554;BME280;19885;42.208;24.952;2022-07-18T11:46:26;100384.38;;;30.59;34.55
33554;BME280;19885;42.208;24.952;2022-07-18T11:49:03;100383.13;;;30.77;32.72
33554;BME280;19885;42.208;24.952;2022-07-18T11:51:37;100385.25;;;30.99;33.36
33554;BME280;19885;42.208;24.952;2022-07-18T11:54:04;100371.88;;;30.58;35.92
33554;BME280;19885;42.208;24.952;2022-07-18T11:56:30;100378.03;;;31.25;33.85
33554;BME280;19885;42.208;24.952;2022-07-18T11:58:56;100352.84;;;31.26;33.21
33554;BME280;19885;42.208;24.952;2022-07-18T12:01:30;100375.78;;;31.56;31.17
33554;BME280;19885;42.208;24.952;2022-07-18T12:03:56;100376.69;;;31.93;34.50
33554;BME280;19885;42.208;24.952;2022-07-18T12:06:23;100374.22;;;32.26;32.46
33554;BME280;19885;42.208;24.952;2022-07-18T12:08:54;100361.56;;;32.03;32.06
33554;BME280;19885;42.208;24.952;2022-07-18T12:11:32;100371.69;;;32.12;34.84
33554;BME280;19885;42.208;24.952;2022-07-18T12:19:19;100361.84;;;31.75;33.89
33554;BME280;19885;42.208;24.952;2022-07-18T12:22:03;100321.25;;;31.53;34.27
33554;BME280;19885;42.208;24.952;2022-07-18T12:27:14;100365.91;;;31.93;33.69
33554;BME280;19885;42.208;24.952;2022-07-18T12:32:53;100359.53;;;31.08;31.42
33554;BME280;19885;42.208;24.952;2022-07-18T12:37:59;100347.97;;;31.92;32.71
33554;BME280;19885;42.208;24.952;2022-07-18T12:40:43;100316.97;;;32.10;32.35
33554;BME280;19885;42.208;24.952;2022-07-18T12:43:33;100348.97;;;32.27;30.79
33554;BME280;19885;42.208;24.952;2022-07-18T12:46:07;100338.47;;;32.47;33.26
33554;BME280;19885;42.208;24.952;2022-07-18T12:48:34;100335.13;;;32.08;31.64
33554;BME280;19885;42.208;24.952;2022-07-18T12:51:19;100335.69;;;31.39;31.69
33554;BME280;19885;42.208;24.952;2022-07-18T12:53:45;100338.38;;;31.52;31.34
33554;BME280;19885;42.208;24.952;2022-07-18T12:56:10;100319.84;;;31.35;29.77
33554;BME280;19885;42.208;24.952;2022-07-18T12:58:36;100324.47;;;31.20;29.05
33554;BME280;19885;42.208;24.952;2022-07-18T13:01:02;100316.84;;;31.14;29.30
33554;BME280;19885;42.208;24.952;2022-07-18T13:03:28;100320.94;;;31.45;30.41
33554;BME280;19885;42.208;24.952;2022-07-18T13:05:54;100324.03;;;31.64;30.41
33554;BME280;19885;42.208;24.952;2022-07-18T13:08:20;100330.16;;;31.66;30.53
33554;BME280;19885;42.208;24.952;2022-07-18T13:10:47;100308.94;;;31.85;32.95
33554;BME280;19885;42.208;24.952;2022-07-18T13:13:13;100318.41;;;32.03;32.39
33554;BME280;19885;42.208;24.952;2022-07-18T13:15:41;100317.34;;;31.93;30.23
33554;BME280;19885;42.208;24.952;2022-07-18T13:18:08;100324.38;;;32.19;30.38
33554;BME280;19885;42.208;24.952;2022-07-18T13:20:34;100325.00;;;32.23;32.63